Time;durP1;ratioP1;P1;durP2;ratioP2;P2;SDS_P1;SDS_P2;PMS_P1;PMS_P2;Temp;Humidity;BMP_temperature;BMP_pressure;BME280_temperature;BME280_humidity;BME280_pressure;Samples;Min_cycle;Max_cycle;Signal;HPM_P1;HPM_P2
2023/08/06 00:02:13;;;;;;;7.00;4.65;;;;;;;;;;4992484;28;20774;-77
2023/08/06 00:04:39;;;;;;;5.55;4.82;;;;;;;;;;4991356;28;20030;-76
2023/08/06 00:07:04;;;;;;;6.88;4.68;;;;;;;;;;4992754;28;20386;-76
2023/08/06 00:09:30;;;;;;;7.43;4.57;;;;;;;;;;4992634;28;20113;-77
2023/08/06 00:11:55;;;;;;;7.90;5.00;;;;;;;;;;4990740;28;20061;-78
2023/08/06 00:14:21;;;;;;;7.30;4.70;;;;;;;;;;4991177;28;20382;-78
2023/08/06 00:16:46;;;;;;;7.10;5.03;;;;;;;;;;4990282;28;20589;-76
2023/08/06 00:19:12;;;;;;;5.93;5.32;;;;;;;;;;4989883;28;20030;-76
2023/08/06 00:21:37;;;;;;;6.38;4.43;;;;;;;;;;4989668;28;20033;-77
2023/08/06 00:24:03;;;;;;;5.65;4.63;;;;;;;;;;4990208;28;20066;-76
2023/08/06 00:26:29;;;;;;;4.95;4.45;;;;;;;;;;4989583;28;20718;-76
2023/08/06 00:28:54;;;;;;;7.60;4.55;;;;;;;;;;4991719;28;20447;-78
2023/08/06 00:31:19;;;;;;;8.00;4.63;;;;;;;;;;4991826;28;20038;-77
2023/08/06 00:33:45;;;;;;;6.50;4.10;;;;;;;;;;4991822;28;20475;-78
2023/08/06 00:36:11;;;;;;;5.20;4.60;;;;;;;;;;4974299;28;20031;-76
2023/08/06 00:38:36;;;;;;;5.13;4.38;;;;;;;;;;4973576;28;20678;-77
2023/08/06 00:41:02;;;;;;;5.00;4.30;;;;;;;;;;4990785;28;20080;-77
2023/08/06 00:43:27;;;;;;;4.15;3.75;;;;;;;;;;4990527;28;20038;-77
2023/08/06 00:45:53;;;;;;;5.07;3.92;;;;;;;;;;4990763;28;20029;-78
2023/08/06 00:48:19;;;;;;;4.68;3.95;;;;;;;;;;4972928;28;20034;-77
2023/08/06 00:50:44;;;;;;;4.82;4.00;;;;;;;;;;4990783;28;20445;-78
2023/08/06 00:53:10;;;;;;;5.97;4.32;;;;;;;;;;4972997;28;20034;-78
2023/08/06 00:55:36;;;;;;;7.00;4.13;;;;;;;;;;4979328;28;20018;-77
2023/08/06 00:58:02;;;;;;;4.15;3.75;;;;;;;;;;4992166;28;20021;-78
2023/08/06 01:00:28;;;;;;;5.13;4.05;;;;;;;;;;4984322;28;20032;-77
2023/08/06 01:02:53;;;;;;;6.90;4.13;;;;;;;;;;4979129;28;20109;-77
2023/08/06 01:05:22;;;;;;;5.13;4.30;;;;;;;;;;4991677;28;20064;-77
2023/08/06 01:08:02;;;;;;;4.93;3.47;;;;;;;;;;4991197;28;20030;-78
2023/08/06 01:10:33;;;;;;;4.60;4.10;;;;;;;;;;4973734;28;20081;-77
2023/08/06 01:13:05;;;;;;;5.63;4.07;;;;;;;;;;4973856;28;20459;-77
2023/08/06 01:15:41;;;;;;;6.75;4.72;;;;;;;;;;4974140;28;20061;-77
2023/08/06 01:18:06;;;;;;;4.95;4.45;;;;;;;;;;4976618;28;20034;-76
2023/08/06 01:20:32;;;;;;;6.60;4.63;;;;;;;;;;4976607;28;20376;-78
2023/08/06 01:22:57;;;;;;;5.75;3.92;;;;;;;;;;4976106;28;20050;-77
2023/08/06 01:25:30;;;;;;;6.90;4.75;;;;;;;;;;4992316;28;20494;-78
2023/08/06 01:28:08;;;;;;;6.45;4.90;;;;;;;;;;4976311;28;20459;-77
2023/08/06 01:30:40;;;;;;;6.13;4.32;;;;;;;;;;4976297;28;20117;-77
2023/08/06 01:33:10;;;;;;;5.25;4.65;;;;;;;;;;4993617;28;20044;-77
2023/08/06 01:35:37;;;;;;;5.57;4.13;;;;;;;;;;4976495;28;20022;-76
2023/08/06 01:38:03;;;;;;;6.00;4.70;;;;;;;;;;4976108;28;20490;-78
2023/08/06 01:40:29;;;;;;;4.97;4.10;;;;;;;;;;4976272;28;20058;-77
2023/08/06 01:42:55;;;;;;;5.95;4.70;;;;;;;;;;4993744;28;20030;-77
2023/08/06 01:45:20;;;;;;;5.72;4.28;;;;;;;;;;4995125;28;20449;-76
2023/08/06 01:47:46;;;;;;;6.22;4.03;;;;;;;;;;4978471;28;20026;-77
2023/08/06 01:50:11;;;;;;;6.35;4.28;;;;;;;;;;4995880;28;20109;-76
2023/08/06 01:52:37;;;;;;;6.53;4.70;;;;;;;;;;4996655;28;20540;-76
2023/08/06 01:55:03;;;;;;;6.05;4.80;;;;;;;;;;4981402;28;20100;-77
2023/08/06 01:57:28;;;;;;;5.63;4.72;;;;;;;;;;4984887;28;20033;-78
2023/08/06 01:59:54;;;;;;;4.60;4.20;;;;;;;;;;4994720;28;20053;-76
2023/08/06 02:02:19;;;;;;;4.70;4.20;;;;;;;;;;4994790;28;20026;-77
2023/08/06 02:04:45;;;;;;;5.07;4.38;;;;;;;;;;4993847;28;20026;-77
2023/08/06 02:07:10;;;;;;;6.60;4.45;;;;;;;;;;4975496;28;20045;-77
2023/08/06 02:09:36;;;;;;;6.40;4.60;;;;;;;;;;4993125;28;20080;-77
2023/08/06 02:12:02;;;;;;;4.43;4.03;;;;;;;;;;4992902;28;20023;-76
2023/08/06 02:14:28;;;;;;;5.22;4.32;;;;;;;;;;4976332;28;20033;-75
2023/08/06 02:16:53;;;;;;;4.38;3.80;;;;;;;;;;4993603;28;20026;-77
2023/08/06 02:19:18;;;;;;;5.03;4.10;;;;;;;;;;4993391;28;20022;-78
2023/08/06 02:21:44;;;;;;;5.45;4.63;;;;;;;;;;4975283;28;20029;-76
2023/08/06 02:24:10;;;;;;;5.20;4.50;;;;;;;;;;4992560;28;20105;-77
2023/08/06 02:26:35;;;;;;;5.90;3.90;;;;;;;;;;4974937;28;20018;-78
2023/08/06 02:29:01;;;;;;;5.10;4.05;;;;;;;;;;4991196;28;20030;-77
2023/08/06 02:31:27;;;;;;;4.43;3.72;;;;;;;;;;4993783;28;20033;-78
2023/08/06 02:33:53;;;;;;;4.28;3.60;;;;;;;;;;5011026;28;20503;-77
2023/08/06 02:36:19;;;;;;;3.55;3.25;;;;;;;;;;5002888;28;20018;-76
2023/08/06 02:38:45;;;;;;;4.47;3.92;;;;;;;;;;4984561;28;20066;-76
2023/08/06 02:41:10;;;;;;;4.13;3.72;;;;;;;;;;4977538;28;20046;-78
2023/08/06 02:43:36;;;;;;;6.55;4.65;;;;;;;;;;5004749;28;20044;-77
2023/08/06 02:46:01;;;;;;;6.68;3.33;;;;;;;;;;5011121;28;20068;-78
2023/08/06 02:48:27;;;;;;;3.47;3.08;;;;;;;;;;5012233;28;20022;-78
2023/08/06 02:50:53;;;;;;;4.57;3.33;;;;;;;;;;4994984;28;20036;-78
2023/08/06 02:53:18;;;;;;;4.70;3.95;;;;;;;;;;4994287;28;20026;-77
2023/08/06 02:55:47;;;;;;;5.25;4.75;;;;;;;;;;5011844;28;20022;-77
2023/08/06 02:58:14;;;;;;;7.32;5.55;;;;;;;;;;5010485;28;20048;-78
2023/08/06 03:00:39;;;;;;;6.63;5.88;;;;;;;;;;4994747;28;20501;-78
2023/08/06 03:03:05;;;;;;;10.10;7.07;;;;;;;;;;4994031;28;20173;-76
2023/08/06 03:05:30;;;;;;;9.18;7.68;;;;;;;;;;5011341;28;20028;-77
2023/08/06 03:07:56;;;;;;;10.73;7.85;;;;;;;;;;5011774;28;20153;-78
2023/08/06 03:10:21;;;;;;;9.23;6.95;;;;;;;;;;4993951;28;20022;-78
2023/08/06 03:12:47;;;;;;;9.40;7.63;;;;;;;;;;5012828;28;20376;-78
2023/08/06 03:15:13;;;;;;;10.27;7.70;;;;;;;;;;5013543;28;20458;-78
2023/08/06 03:17:38;;;;;;;8.75;7.65;;;;;;;;;;5013043;28;20467;-77
2023/08/06 03:20:04;;;;;;;9.20;7.53;;;;;;;;;;5011024;28;20037;-78
2023/08/06 03:22:30;;;;;;;11.23;7.88;;;;;;;;;;5012362;28;20041;-77
2023/08/06 03:24:55;;;;;;;12.10;8.05;;;;;;;;;;5011558;28;20022;-77
2023/08/06 03:27:21;;;;;;;12.32;8.50;;;;;;;;;;5010996;28;20030;-77
2023/08/06 03:29:50;;;;;;;15.68;9.30;;;;;;;;;;5011109;28;20037;-77
2023/08/06 03:32:15;;;;;;;13.38;10.40;;;;;;;;;;5010635;28;20041;-77
2023/08/06 03:34:41;;;;;;;14.30;9.32;;;;;;;;;;4993402;28;20339;-78
2023/08/06 03:37:06;;;;;;;14.93;10.10;;;;;;;;;;5010960;28;20179;-77
2023/08/06 03:39:32;;;;;;;12.30;9.05;;;;;;;;;;4992585;28;20091;-78
2023/08/06 03:41:57;;;;;;;9.45;6.50;;;;;;;;;;4993784;28;20038;-78
2023/08/06 03:44:23;;;;;;;10.55;6.70;;;;;;;;;;4993357;28;20058;-78
2023/08/06 03:46:48;;;;;;;10.73;7.03;;;;;;;;;;5009877;28;20069;-78
2023/08/06 03:49:14;;;;;;;8.13;6.43;;;;;;;;;;5010554;28;20030;-78
2023/08/06 03:51:39;;;;;;;6.60;5.68;;;;;;;;;;4992734;28;20073;-78
2023/08/06 03:54:05;;;;;;;8.85;5.70;;;;;;;;;;4992672;28;20030;-77
2023/08/06 03:56:30;;;;;;;6.47;5.03;;;;;;;;;;4993109;28;20033;-79
2023/08/06 03:58:56;;;;;;;8.60;5.38;;;;;;;;;;4992884;28;20485;-76
2023/08/06 04:01:21;;;;;;;6.55;5.50;;;;;;;;;;5010240;28;20088;-77
2023/08/06 04:03:47;;;;;;;8.15;6.00;;;;;;;;;;5016884;28;20017;-77
2023/08/06 04:06:12;;;;;;;7.80;6.13;;;;;;;;;;5033840;28;20504;-78
2023/08/06 04:08:38;;;;;;;8.38;6.65;;;;;;;;;;5034411;28;20085;-77
2023/08/06 04:11:03;;;;;;;12.13;10.15;;;;;;;;;;5027201;28;20513;-76
2023/08/06 04:13:29;;;;;;;11.75;7.78;;;;;;;;;;5024583;28;20037;-77
2023/08/06 04:15:55;;;;;;;9.07;6.15;;;;;;;;;;5002565;28;20024;-77
2023/08/06 04:18:20;;;;;;;7.13;5.70;;;;;;;;;;5014150;28;20089;-77
2023/08/06 04:20:49;;;;;;;7.00;5.38;;;;;;;;;;4994523;28;20104;-77
2023/08/06 04:23:15;;;;;;;7.70;4.95;;;;;;;;;;4993525;28;20030;-78
2023/08/06 04:25:40;;;;;;;6.50;4.50;;;;;;;;;;4993391;28;20121;-77
2023/08/06 04:28:07;;;;;;;5.30;4.40;;;;;;;;;;4993305;28;20124;-77
2023/08/06 04:30:34;;;;;;;5.88;4.82;;;;;;;;;;4993121;28;20038;-75
2023/08/06 04:32:59;;;;;;;4.40;3.85;;;;;;;;;;4997496;28;20056;-78
2023/08/06 04:35:25;;;;;;;6.03;4.22;;;;;;;;;;5025496;28;20018;-77
2023/08/06 04:37:51;;;;;;;5.00;3.53;;;;;;;;;;5010566;28;20037;-78
2023/08/06 04:40:16;;;;;;;3.97;3.58;;;;;;;;;;5010501;28;20435;-78
2023/08/06 04:42:42;;;;;;;6.43;4.43;;;;;;;;;;5010647;28;20053;-78
2023/08/06 04:45:07;;;;;;;5.15;4.28;;;;;;;;;;5011509;28;20052;-77
2023/08/06 04:47:33;;;;;;;4.25;3.83;;;;;;;;;;5010538;28;20113;-77
2023/08/06 04:50:00;;;;;;;4.40;3.67;;;;;;;;;;5011833;28;20041;-77
2023/08/06 04:52:28;;;;;;;6.10;4.88;;;;;;;;;;5025502;28;20073;-77
2023/08/06 04:54:54;;;;;;;4.05;3.65;;;;;;;;;;5010663;28;20479;-78
2023/08/06 04:57:19;;;;;;;4.13;3.72;;;;;;;;;;4995398;28;20073;-77
2023/08/06 04:59:45;;;;;;;5.60;4.38;;;;;;;;;;5010477;28;20026;-78
2023/08/06 05:02:11;;;;;;;6.45;3.97;;;;;;;;;;5010385;28;20030;-78
2023/08/06 05:04:36;;;;;;;6.45;4.28;;;;;;;;;;4993306;28;20463;-78
2023/08/06 05:07:02;;;;;;;5.07;3.85;;;;;;;;;;4992900;28;20026;-77
2023/08/06 05:09:27;;;;;;;4.68;3.85;;;;;;;;;;4994338;28;20034;-77
2023/08/06 05:11:53;;;;;;;4.90;3.95;;;;;;;;;;4994009;28;20026;-78
2023/08/06 05:14:18;;;;;;;5.45;4.32;;;;;;;;;;4991906;28;20027;-77
2023/08/06 05:16:44;;;;;;;5.97;5.32;;;;;;;;;;4992410;28;20018;-78
2023/08/06 05:19:09;;;;;;;5.25;4.13;;;;;;;;;;4992449;28;20499;-79
2023/08/06 05:21:35;;;;;;;5.55;4.90;;;;;;;;;;4992473;28;20030;-78
2023/08/06 05:24:00;;;;;;;5.70;4.05;;;;;;;;;;4992909;28;20026;-78
2023/08/06 05:26:26;;;;;;;5.50;4.03;;;;;;;;;;4992361;28;20033;-79
2023/08/06 05:28:51;;;;;;;6.13;4.22;;;;;;;;;;5009164;28;20040;-79
2023/08/06 05:31:17;;;;;;;7.57;4.82;;;;;;;;;;4993760;28;20029;-77
2023/08/06 05:33:42;;;;;;;6.40;3.78;;;;;;;;;;4992226;28;20466;-80
2023/08/06 05:36:08;;;;;;;4.38;3.97;;;;;;;;;;4992222;28;20026;-78
2023/08/06 05:38:33;;;;;;;5.50;4.00;;;;;;;;;;4993395;28;20108;-79
2023/08/06 05:40:59;;;;;;;4.15;3.75;;;;;;;;;;4992204;28;20109;-78
2023/08/06 05:43:24;;;;;;;5.47;3.83;;;;;;;;;;4992180;28;20463;-78
2023/08/06 05:45:50;;;;;;;4.03;3.45;;;;;;;;;;5010624;28;20046;-76
2023/08/06 05:48:16;;;;;;;5.03;3.55;;;;;;;;;;5001581;28;20034;-82
2023/08/06 05:50:42;;;;;;;5.53;4.30;;;;;;;;;;5018347;28;20693;-82
2023/08/06 05:53:07;;;;;;;4.32;3.70;;;;;;;;;;4997578;28;20030;-83
2023/08/06 05:55:33;;;;;;;5.57;3.33;;;;;;;;;;4995642;28;20022;-83
2023/08/06 05:57:59;;;;;;;3.85;3.15;;;;;;;;;;4994651;28;20022;-81
2023/08/06 06:00:25;;;;;;;3.42;2.90;;;;;;;;;;4992070;28;20122;-82
2023/08/06 06:02:50;;;;;;;5.07;3.50;;;;;;;;;;4992114;28;20038;-82
2023/08/06 06:05:16;;;;;;;5.85;3.63;;;;;;;;;;4992252;28;20030;-82
2023/08/06 06:07:42;;;;;;;3.25;2.95;;;;;;;;;;4994051;28;20119;-82
2023/08/06 06:10:08;;;;;;;4.72;3.60;;;;;;;;;;4993925;28;20482;-83
2023/08/06 06:12:33;;;;;;;10.88;8.35;;;;;;;;;;4993345;28;20038;-83
2023/08/06 06:15:00;;;;;;;6.53;3.80;;;;;;;;;;4993352;28;20027;-81
2023/08/06 06:17:26;;;;;;;4.28;3.42;;;;;;;;;;4994078;28;20069;-82
2023/08/06 06:19:52;;;;;;;4.30;3.15;;;;;;;;;;4994186;28;20028;-83
2023/08/06 06:22:18;;;;;;;4.32;3.15;;;;;;;;;;4994704;28;20537;-82
2023/08/06 06:24:43;;;;;;;4.40;4.00;;;;;;;;;;4993365;28;20027;-83
2023/08/06 06:27:09;;;;;;;3.25;2.95;;;;;;;;;;4993008;28;20105;-83
2023/08/06 06:29:34;;;;;;;3.05;2.75;;;;;;;;;;4992295;28;20030;-85
2023/08/06 06:32:00;;;;;;;4.72;3.47;;;;;;;;;;5008668;28;20044;-83
2023/08/06 06:34:25;;;;;;;3.88;2.70;;;;;;;;;;4991536;28;20129;-83
2023/08/06 06:36:50;;;;;;;3.22;2.83;;;;;;;;;;4991400;28;20031;-82
2023/08/06 06:39:17;;;;;;;3.30;2.97;;;;;;;;;;4993189;28;20030;-82
2023/08/06 06:41:44;;;;;;;4.57;2.85;;;;;;;;;;4992055;28;20451;-82
2023/08/06 06:44:10;;;;;;;4.40;2.72;;;;;;;;;;5008721;28;20077;-83
2023/08/06 06:46:35;;;;;;;3.45;2.90;;;;;;;;;;4994873;28;20034;-83
2023/08/06 06:49:01;;;;;;;4.63;3.25;;;;;;;;;;4995639;28;20041;-82
2023/08/06 06:51:27;;;;;;;5.05;3.35;;;;;;;;;;5001334;28;20427;-83
2023/08/06 06:53:53;;;;;;;3.85;3.13;;;;;;;;;;5007475;28;20022;-81
2023/08/06 06:56:19;;;;;;;4.60;2.97;;;;;;;;;;5014733;28;20034;-80
2023/08/06 06:58:44;;;;;;;3.35;3.05;;;;;;;;;;5015335;28;20034;-79
2023/08/06 07:01:11;;;;;;;3.35;2.95;;;;;;;;;;5011837;28;20026;-78
2023/08/06 07:03:37;;;;;;;3.50;2.80;;;;;;;;;;5007182;28;20108;-83
2023/08/06 07:06:03;;;;;;;5.20;2.80;;;;;;;;;;5000559;28;20029;-81
2023/08/06 07:08:29;;;;;;;3.30;3.00;;;;;;;;;;4998586;28;20092;-84
2023/08/06 07:11:03;;;;;;;4.18;3.63;;;;;;;;;;5013895;28;20034;-81
2023/08/06 07:13:30;;;;;;;4.80;3.97;;;;;;;;;;4999009;28;20030;-83
2023/08/06 07:15:58;;;;;;;3.85;3.45;;;;;;;;;;4998884;28;20101;-82
2023/08/06 07:18:24;;;;;;;5.45;4.45;;;;;;;;;;5003321;28;20035;-83
2023/08/06 07:20:54;;;;;;;5.15;4.47;;;;;;;;;;5021286;28;20121;-82
2023/08/06 07:23:25;;;;;;;9.00;5.97;;;;;;;;;;5010680;28;20030;-82
2023/08/06 07:25:51;;;;;;;5.22;4.72;;;;;;;;;;5007603;28;20085;-81
2023/08/06 07:28:18;;;;;;;6.45;5.18;;;;;;;;;;5010119;28;20033;-77
2023/08/06 07:30:45;;;;;;;7.70;5.50;;;;;;;;;;5007937;28;20026;-82
2023/08/06 07:33:11;;;;;;;9.82;5.95;;;;;;;;;;5006802;28;20082;-83
2023/08/06 07:35:40;;;;;;;9.02;6.28;;;;;;;;;;4986849;28;20050;-82
2023/08/06 07:38:06;;;;;;;8.75;6.05;;;;;;;;;;5003129;28;20042;-82
2023/08/06 07:40:32;;;;;;;47.03;21.38;;;;;;;;;;4986499;28;20026;-83
2023/08/06 07:42:58;;;;;;;6.28;5.45;;;;;;;;;;4984855;28;20084;-84
2023/08/06 07:45:24;;;;;;;9.02;6.60;;;;;;;;;;5002468;28;20022;-82
2023/08/06 07:47:53;;;;;;;7.88;6.10;;;;;;;;;;4985005;28;20023;-84
2023/08/06 07:50:18;;;;;;;10.68;5.97;;;;;;;;;;5003963;28;20030;-82
2023/08/06 07:52:44;;;;;;;7.90;6.50;;;;;;;;;;5003448;28;20026;-82
2023/08/06 07:55:10;;;;;;;8.68;6.20;;;;;;;;;;5003813;28;20069;-83
2023/08/06 07:57:36;;;;;;;7.63;6.25;;;;;;;;;;4985439;28;20022;-80
2023/08/06 08:00:03;;;;;;;9.45;6.82;;;;;;;;;;4999982;28;20026;-82
2023/08/06 08:02:30;;;;;;;9.40;6.85;;;;;;;;;;5000794;28;20042;-81
2023/08/06 08:04:55;;;;;;;9.07;5.93;;;;;;;;;;4983117;28;20026;-81
2023/08/06 08:07:22;;;;;;;7.40;5.75;;;;;;;;;;4983438;28;20382;-82
2023/08/06 08:09:48;;;;;;;8.02;5.97;;;;;;;;;;5001331;28;20060;-82
2023/08/06 08:12:21;;;;;;;6.38;5.75;;;;;;;;;;4985368;28;20453;-85
2023/08/06 08:14:47;;;;;;;7.43;6.07;;;;;;;;;;5003588;28;20045;-83
2023/08/06 08:17:16;;;;;;;7.25;6.05;;;;;;;;;;5004841;28;20033;-83
2023/08/06 08:19:43;;;;;;;6.68;5.80;;;;;;;;;;5009395;28;20065;-81
2023/08/06 08:22:09;;;;;;;6.63;5.93;;;;;;;;;;5012934;28;20051;-84
2023/08/06 08:24:35;;;;;;;7.15;5.97;;;;;;;;;;5013665;28;20030;-82
2023/08/06 08:27:01;;;;;;;7.38;5.50;;;;;;;;;;5000711;28;20038;-79
2023/08/06 08:29:27;;;;;;;7.25;5.65;;;;;;;;;;5018282;28;20033;-83
2023/08/06 08:31:53;;;;;;;6.35;5.75;;;;;;;;;;4991203;28;20093;-77
2023/08/06 08:34:19;;;;;;;9.77;6.32;;;;;;;;;;4979910;28;20053;-77
2023/08/06 08:36:47;;;;;;;6.15;5.55;;;;;;;;;;4996352;28;20096;-77
2023/08/06 08:39:15;;;;;;;6.65;5.38;;;;;;;;;;4997700;28;20034;-78
2023/08/06 08:41:43;;;;;;;6.63;5.80;;;;;;;;;;4979624;28;20034;-78
2023/08/06 08:44:13;;;;;;;10.60;5.43;;;;;;;;;;4997216;28;20080;-82
2023/08/06 08:46:41;;;;;;;7.80;5.35;;;;;;;;;;4979725;28;20081;-79
2023/08/06 08:49:07;;;;;;;5.75;5.15;;;;;;;;;;4979681;28;20129;-79
2023/08/06 08:51:35;;;;;;;5.93;5.32;;;;;;;;;;4996991;28;20108;-79
2023/08/06 08:54:03;;;;;;;6.20;5.05;;;;;;;;;;4978940;28;20929;-77
2023/08/06 08:56:29;;;;;;;4.72;4.20;;;;;;;;;;4979088;28;20037;-76
2023/08/06 08:58:55;;;;;;;5.57;4.95;;;;;;;;;;4982105;28;20022;-78
2023/08/06 09:01:22;;;;;;;4.38;3.97;;;;;;;;;;4993353;28;20487;-78
2023/08/06 09:03:48;;;;;;;5.63;3.80;;;;;;;;;;4987838;28;20030;-76
2023/08/06 09:06:15;;;;;;;9.13;4.57;;;;;;;;;;4987595;28;20027;-78
2023/08/06 09:08:48;;;;;;;5.45;3.35;;;;;;;;;;5003829;28;20077;-76
2023/08/06 09:11:14;;;;;;;4.15;3.70;;;;;;;;;;4984032;28;20033;-77
2023/08/06 09:13:41;;;;;;;4.13;3.17;;;;;;;;;;4982539;28;20454;-80
2023/08/06 09:16:06;;;;;;;4.20;3.25;;;;;;;;;;4998102;28;20035;-77
2023/08/06 09:18:32;;;;;;;4.18;3.45;;;;;;;;;;5001495;28;20371;-77
2023/08/06 09:20:58;;;;;;;3.47;3.17;;;;;;;;;;4986175;28;20183;-81
2023/08/06 09:23:30;;;;;;;6.57;3.40;;;;;;;;;;5004149;28;20030;-78
2023/08/06 09:25:57;;;;;;;2.75;2.55;;;;;;;;;;5000780;28;20030;-78
2023/08/06 09:28:24;;;;;;;4.80;2.72;;;;;;;;;;5001030;28;20018;-76
2023/08/06 09:30:54;;;;;;;3.47;3.15;;;;;;;;;;4984529;28;20030;-80
2023/08/06 09:33:23;;;;;;;3.33;3.03;;;;;;;;;;5006612;28;20038;-75
2023/08/06 09:35:48;;;;;;;3.80;3.00;;;;;;;;;;4987677;28;20057;-78
2023/08/06 09:38:14;;;;;;;5.80;2.78;;;;;;;;;;4987742;28;20030;-79
2023/08/06 09:40:44;;;;;;;4.32;2.70;;;;;;;;;;4988434;28;20026;-79
2023/08/06 09:43:12;;;;;;;4.63;3.22;;;;;;;;;;5003449;28;20037;-80
2023/08/06 09:45:38;;;;;;;3.97;3.50;;;;;;;;;;4997242;28;20105;-79
2023/08/06 09:48:08;;;;;;;3.85;2.80;;;;;;;;;;4997193;28;20100;-79
2023/08/06 09:50:36;;;;;;;3.50;3.10;;;;;;;;;;4979673;28;20033;-78
2023/08/06 09:53:03;;;;;;;4.30;3.42;;;;;;;;;;4979631;28;20048;-80
2023/08/06 09:55:29;;;;;;;3.60;3.30;;;;;;;;;;4995427;28;20049;-79
2023/08/06 09:57:58;;;;;;;5.88;3.33;;;;;;;;;;4995572;28;20553;-79
2023/08/06 10:00:24;;;;;;;4.72;3.13;;;;;;;;;;4995843;28;20037;-78
2023/08/06 10:02:54;;;;;;;5.72;3.03;;;;;;;;;;4995674;28;20130;-77
2023/08/06 10:05:21;;;;;;;3.28;2.97;;;;;;;;;;4978235;28;20039;-77
2023/08/06 10:07:47;;;;;;;5.65;2.80;;;;;;;;;;4978000;28;20033;-77
2023/08/06 10:10:13;;;;;;;5.88;2.50;;;;;;;;;;4978362;28;20482;-78
2023/08/06 10:12:48;;;;;;;4.18;2.53;;;;;;;;;;4994597;28;20037;-79
2023/08/06 10:15:16;;;;;;;3.20;2.65;;;;;;;;;;4995581;28;20031;-78
2023/08/06 10:17:45;;;;;;;3.55;2.42;;;;;;;;;;4994994;28;20459;-78
2023/08/06 10:20:12;;;;;;;3.50;2.50;;;;;;;;;;4977355;28;20130;-78
2023/08/06 10:22:46;;;;;;;3.58;3.28;;;;;;;;;;4976443;28;20538;-79
2023/08/06 10:25:16;;;;;;;8.20;2.85;;;;;;;;;;4977512;28;20037;-78
2023/08/06 10:27:48;;;;;;;3.35;2.60;;;;;;;;;;4976764;28;20073;-78
2023/08/06 10:30:31;;;;;;;2.90;2.60;;;;;;;;;;4978600;28;20033;-76
2023/08/06 10:33:04;;;;;;;2.83;2.50;;;;;;;;;;4978028;28;20050;-79
2023/08/06 10:35:49;;;;;;;3.05;2.38;;;;;;;;;;4994098;28;20029;-78
2023/08/06 10:38:27;;;;;;;3.20;2.20;;;;;;;;;;5008570;28;20027;-79
2023/08/06 10:40:52;;;;;;;2.53;2.33;;;;;;;;;;4991787;28;20029;-78
2023/08/06 10:43:31;;;;;;;2.55;2.35;;;;;;;;;;4983358;28;20027;-79
2023/08/06 10:45:59;;;;;;;2.65;2.45;;;;;;;;;;4999549;28;20037;-76
2023/08/06 10:48:45;;;;;;;3.47;2.63;;;;;;;;;;4979292;28;20027;-79
2023/08/06 10:51:13;;;;;;;2.22;2.03;;;;;;;;;;4994326;28;20023;-78
2023/08/06 10:53:44;;;;;;;3.42;2.25;;;;;;;;;;4995430;28;20026;-77
2023/08/06 10:56:16;;;;;;;2.33;2.13;;;;;;;;;;4978560;28;20023;-78
2023/08/06 10:58:43;;;;;;;2.28;1.88;;;;;;;;;;4978850;28;20065;-78
2023/08/06 11:01:09;;;;;;;2.70;2.08;;;;;;;;;;4977340;28;20030;-77
2023/08/06 11:03:36;;;;;;;2.40;2.20;;;;;;;;;;4977276;28;20061;-79
2023/08/06 11:06:02;;;;;;;2.45;2.25;;;;;;;;;;4975942;28;20077;-77
2023/08/06 11:08:34;;;;;;;3.35;2.35;;;;;;;;;;4992885;28;20030;-78
2023/08/06 11:11:13;;;;;;;1.90;1.80;;;;;;;;;;4975775;28;20085;-79
2023/08/06 11:13:44;;;;;;;2.22;1.95;;;;;;;;;;4993088;28;20521;-78
2023/08/06 11:16:10;;;;;;;1.80;1.70;;;;;;;;;;4976772;28;20092;-81
2023/08/06 11:18:41;;;;;;;2.33;1.95;;;;;;;;;;4976085;28;20030;-76
2023/08/06 11:21:07;;;;;;;3.33;1.83;;;;;;;;;;4975832;28;20097;-77
2023/08/06 11:23:34;;;;;;;2.50;1.65;;;;;;;;;;4976884;28;20081;-78
2023/08/06 11:25:59;;;;;;;1.50;1.40;;;;;;;;;;4976385;28;20030;-78
2023/08/06 11:28:25;;;;;;;1.45;1.35;;;;;;;;;;4991663;28;20033;-77
2023/08/06 11:30:55;;;;;;;2.53;2.30;;;;;;;;;;4993412;28;20038;-80
2023/08/06 11:33:27;;;;;;;3.33;1.90;;;;;;;;;;4991770;28;20213;-77
2023/08/06 11:35:56;;;;;;;2.70;1.67;;;;;;;;;;4992925;28;20037;-77
2023/08/06 11:38:25;;;;;;;1.60;1.50;;;;;;;;;;4993339;28;20045;-78
2023/08/06 11:40:51;;;;;;;1.95;1.85;;;;;;;;;;4976077;28;20038;-78
2023/08/06 11:43:19;;;;;;;2.17;1.55;;;;;;;;;;4975498;28;20026;-78
2023/08/06 11:45:53;;;;;;;2.67;2.05;;;;;;;;;;4992753;28;20030;-80
2023/08/06 11:48:19;;;;;;;2.05;1.90;;;;;;;;;;4991862;28;20033;-77
2023/08/06 11:50:45;;;;;;;2.72;2.08;;;;;;;;;;4975251;28;20033;-80
2023/08/06 11:53:14;;;;;;;4.63;2.53;;;;;;;;;;4992928;28;20105;-78
2023/08/06 11:55:40;;;;;;;3.70;1.95;;;;;;;;;;4975897;28;20022;-77
2023/08/06 11:58:05;;;;;;;3.15;1.67;;;;;;;;;;4976498;28;20030;-80
2023/08/06 12:00:31;;;;;;;2.13;1.92;;;;;;;;;;4994745;28;20085;-78
2023/08/06 12:02:57;;;;;;;2.50;1.75;;;;;;;;;;4982503;28;20053;-77
2023/08/06 12:05:32;;;;;;;3.53;3.15;;;;;;;;;;5002035;28;20045;-76
2023/08/06 12:08:01;;;;;;;2.50;2.15;;;;;;;;;;5000865;28;20113;-77
2023/08/06 12:10:30;;;;;;;3.72;3.38;;;;;;;;;;4977111;28;20023;-78
2023/08/06 12:12:58;;;;;;;2.35;2.15;;;;;;;;;;4978058;28;20031;-78
2023/08/06 12:15:25;;;;;;;5.72;2.10;;;;;;;;;;4981822;28;20022;-78
2023/08/06 12:17:50;;;;;;;2.67;2.05;;;;;;;;;;4988471;28;20019;-78
2023/08/06 12:20:16;;;;;;;2.67;2.47;;;;;;;;;;4983087;28;20105;-79
2023/08/06 12:22:46;;;;;;;4.97;2.17;;;;;;;;;;4981495;28;20033;-77
2023/08/06 12:25:28;;;;;;;2.47;2.00;;;;;;;;;;4998112;28;20027;-79
2023/08/06 12:27:55;;;;;;;3.45;2.20;;;;;;;;;;4998261;28;20037;-79
2023/08/06 12:30:21;;;;;;;4.07;3.00;;;;;;;;;;4979291;28;20061;-77
2023/08/06 12:32:51;;;;;;;4.13;2.03;;;;;;;;;;4980602;28;20050;-79
2023/08/06 12:35:17;;;;;;;2.17;2.08;;;;;;;;;;4999193;28;20025;-79
2023/08/06 12:37:46;;;;;;;3.67;2.95;;;;;;;;;;5001621;28;20026;-77
2023/08/06 12:40:11;;;;;;;3.45;2.33;;;;;;;;;;4985700;28;20034;-79
2023/08/06 12:42:37;;;;;;;2.80;2.53;;;;;;;;;;4988290;28;20034;-78
2023/08/06 12:45:03;;;;;;;2.35;2.03;;;;;;;;;;4992740;28;20030;-78
2023/08/06 12:47:29;;;;;;;7.82;2.90;;;;;;;;;;5003129;28;20062;-77
2023/08/06 12:49:55;;;;;;;4.60;2.92;;;;;;;;;;4992758;28;20179;-77
2023/08/06 12:52:20;;;;;;;3.05;2.65;;;;;;;;;;4994332;28;20031;-78
2023/08/06 12:54:47;;;;;;;3.85;2.70;;;;;;;;;;4977028;28;20023;-79
2023/08/06 12:57:13;;;;;;;3.17;2.75;;;;;;;;;;4975900;28;20029;-78
2023/08/06 12:59:40;;;;;;;5.13;2.25;;;;;;;;;;4976147;28;20018;-77
2023/08/06 13:02:07;;;;;;;5.60;2.72;;;;;;;;;;4976966;28;20026;-77
2023/08/06 13:04:33;;;;;;;6.57;3.15;;;;;;;;;;4975880;28;20030;-77
2023/08/06 13:06:59;;;;;;;3.47;2.75;;;;;;;;;;4991891;28;20035;-78
2023/08/06 13:09:26;;;;;;;4.07;2.85;;;;;;;;;;4992772;28;20046;-78
2023/08/06 13:11:52;;;;;;;3.17;2.70;;;;;;;;;;4993251;28;20045;-77
2023/08/06 13:14:18;;;;;;;4.20;2.88;;;;;;;;;;4996701;28;20022;-78
2023/08/06 13:16:44;;;;;;;6.45;3.15;;;;;;;;;;4978809;28;20157;-77
2023/08/06 13:19:15;;;;;;;3.03;2.70;;;;;;;;;;4996884;28;20109;-77
2023/08/06 13:21:49;;;;;;;6.60;2.47;;;;;;;;;;4979223;28;20530;-78
2023/08/06 13:24:16;;;;;;;4.32;2.55;;;;;;;;;;4978427;28;20037;-78
2023/08/06 13:26:43;;;;;;;6.00;2.65;;;;;;;;;;4979785;28;20114;-83
2023/08/06 13:29:08;;;;;;;4.00;2.45;;;;;;;;;;4984438;28;20026;-82
2023/08/06 13:31:35;;;;;;;3.10;2.80;;;;;;;;;;4985545;28;20080;-85
2023/08/06 13:34:01;;;;;;;2.80;2.47;;;;;;;;;;5004956;28;20042;-85
2023/08/06 13:36:27;;;;;;;4.07;2.40;;;;;;;;;;5006085;28;20042;-84
2023/08/06 13:38:53;;;;;;;2.15;1.95;;;;;;;;;;5011629;28;20030;-82
2023/08/06 13:41:19;;;;;;;4.45;2.92;;;;;;;;;;4996541;28;20065;-82
2023/08/06 13:43:45;;;;;;;2.53;2.33;;;;;;;;;;5012787;28;20034;-84
2023/08/06 13:46:20;;;;;;;2.22;2.00;;;;;;;;;;5013382;28;20026;-82
2023/08/06 13:48:50;;;;;;;2.33;2.13;;;;;;;;;;5008369;28;20061;-82
2023/08/06 13:51:16;;;;;;;2.65;1.73;;;;;;;;;;4991543;28;20053;-81
2023/08/06 13:53:42;;;;;;;2.38;2.17;;;;;;;;;;5014401;28;20030;-81
2023/08/06 13:56:10;;;;;;;6.05;3.15;;;;;;;;;;4997370;28;20017;-80
2023/08/06 13:58:37;;;;;;;3.08;2.00;;;;;;;;;;4988560;28;20034;-81
2023/08/06 14:01:03;;;;;;;3.85;2.05;;;;;;;;;;4988375;28;20034;-82
2023/08/06 14:03:28;;;;;;;3.58;2.13;;;;;;;;;;5007730;28;20515;-81
2023/08/06 14:05:56;;;;;;;3.47;2.05;;;;;;;;;;5005918;28;20034;-84
2023/08/06 14:08:24;;;;;;;3.63;2.03;;;;;;;;;;4989986;28;20030;-83
2023/08/06 14:10:50;;;;;;;2.88;1.83;;;;;;;;;;5007524;28;20049;-81
2023/08/06 14:13:16;;;;;;;3.22;2.30;;;;;;;;;;5004308;28;20068;-81
2023/08/06 14:15:53;;;;;;;2.45;2.25;;;;;;;;;;5004646;28;20140;-82
2023/08/06 14:18:19;;;;;;;3.53;2.40;;;;;;;;;;4986735;28;20030;-81
2023/08/06 14:20:45;;;;;;;1.98;1.75;;;;;;;;;;4987879;28;20029;-83
2023/08/06 14:23:10;;;;;;;2.20;2.00;;;;;;;;;;4987626;28;20051;-83
2023/08/06 14:25:38;;;;;;;3.72;2.30;;;;;;;;;;5005145;28;20074;-82
2023/08/06 14:28:06;;;;;;;3.85;1.90;;;;;;;;;;4987236;28;20117;-78
2023/08/06 14:30:32;;;;;;;1.80;1.70;;;;;;;;;;5005866;28;20018;-80
2023/08/06 14:32:58;;;;;;;2.00;1.90;;;;;;;;;;5007042;28;20444;-81
2023/08/06 14:35:24;;;;;;;2.17;1.73;;;;;;;;;;4986749;28;20022;-80
2023/08/06 14:37:50;;;;;;;2.03;1.73;;;;;;;;;;4985398;28;20112;-82
2023/08/06 14:40:16;;;;;;;1.88;1.77;;;;;;;;;;4984271;28;20031;-82
2023/08/06 14:42:42;;;;;;;1.63;1.50;;;;;;;;;;4986999;28;20113;-83